Hauptseite
METAR-TAF:

METAR-TAF

Flughäfen :

Militärflugplatz Volkel

Uden, Niederlande

Breite: 51-39N, Länge: 005-42E, Höhe: 22 m

Beobachtung

Neuester Wetterbericht von vor 26 Minuten, um 13:25 UTC
Wind 10 kt aus Süd/Südwest, variierte zwischen Süd/Südost und West
Temperatur 23°C
Luftfeuchtigkeit 47%
Luftdruck 1012 hPa
Sichtweite 10 km oder mehr
keine Wolken unter 1500 m und keine Kumulonimbus oder Gewitterwolken

METAR: EHVK 151325Z AUTO 20009KT 160V260 9999 OVC130 23/11 Q1012 BLU 20010KT CAVOK

Zeit: 15:51 (13:51 UTC)

Prognose

Neuester Wetterbericht von vor 5 Stunden und 26 Minuten, um 08:25 UTC
Gültige Prognose vom 15 um 09 UTC bis 15 um 21 UTC
Wind 8 kt aus Süd
Sichtweite 10 km oder mehr
keine Wolken unter 1500 m und keine Kumulonimbus oder Gewitterwolken
Übergehend zu
vom 15 um 15 UTC bis 15 um 18 UTC
Wind 3 kt aus unterschiedlichen Richtungen

TAF: EHVK 150825Z 1509/1521 18008KT CAVOK BECMG 1515/1518 VRB03KT

Wetterbeobachtungen und Prognosen von mehr als 4000 Flughäfen (METAR und TAF Bericht).

Die verfügbaren Stationen werden durch gelbe und rote Markierungen auf der Karte dargestellt.

Führen Sie die Maus auf sie, um den Namen der Station zu sehen.

Darauf klicken, um die Beobachtung von Wetterbeobachtungen und Prognosen zu sehen.

Um die Karte zu ändern : klicken Sie auf den grünen Tasten mit einem schwarzen Kreuz Zum Vergrößern, auf den grünen Button mit einem Gedankenstrich zu verkleinern, oder auf die grünen Pfeile für benachbarte Karten.


METAR-TAF: